createdAt,value
2019-02-18T00:00:39.943Z,76.19
2019-02-18T00:01:39.898Z,76.19
2019-02-18T00:02:39.896Z,75.57
2019-02-18T00:03:39.874Z,76.37
2019-02-18T00:04:39.863Z,76.47
2019-02-18T00:05:39.877Z,77.20
2019-02-18T00:06:39.840Z,76.57
2019-02-18T00:07:39.829Z,76.68
2019-02-18T00:08:39.818Z,75.57
2019-02-18T00:09:39.812Z,75.67
2019-02-18T00:10:39.853Z,75.26
2019-02-18T00:11:39.786Z,75.36
2019-02-18T00:12:39.778Z,75.46
2019-02-18T00:13:39.764Z,76.61
2019-02-18T00:14:39.752Z,76.19
2019-02-18T00:15:39.769Z,75.67
2019-02-18T00:16:39.735Z,75.67
2019-02-18T00:17:39.720Z,75.05
2019-02-18T00:18:39.715Z,75.46
2019-02-18T00:19:39.700Z,75.67
2019-02-18T00:20:39.712Z,75.88
2019-02-18T00:21:39.679Z,75.50
2019-02-18T00:22:39.665Z,76.40
2019-02-18T00:23:39.654Z,76.09
2019-02-18T00:24:39.647Z,76.09
2019-02-18T00:25:39.662Z,76.02
2019-02-18T00:26:39.622Z,76.64
2019-02-18T00:27:39.610Z,76.33
2019-02-18T00:28:39.609Z,76.71
2019-02-18T00:29:39.595Z,76.33
2019-02-18T00:30:39.612Z,76.33
2019-02-18T00:31:39.571Z,76.54
2019-02-18T00:32:39.556Z,77.16
2019-02-18T00:33:39.546Z,76.95
2019-02-18T00:34:39.534Z,76.47
2019-02-18T00:35:39.545Z,76.47
2019-02-18T00:36:39.513Z,76.47
2019-02-18T00:37:39.503Z,76.47
2019-02-18T00:38:39.493Z,76.89
2019-02-18T00:39:39.484Z,76.68
2019-02-18T00:40:39.492Z,76.99
2019-02-18T00:41:39.460Z,76.16
2019-02-18T00:42:39.447Z,76.57
2019-02-18T00:43:39.436Z,76.06
2019-02-18T00:44:39.425Z,76.99
2019-02-18T00:45:39.446Z,76.06
2019-02-18T00:46:39.405Z,76.57
2019-02-18T00:47:39.394Z,76.57
2019-02-18T00:48:39.382Z,76.57
2019-02-18T00:49:39.369Z,76.68
2019-02-18T00:50:39.359Z,76.02
2019-02-18T00:51:39.449Z,76.37
2019-02-18T00:52:39.340Z,76.23
2019-02-18T00:53:39.330Z,76.26
2019-02-18T00:54:39.315Z,75.74
2019-02-18T00:55:39.304Z,75.64
2019-02-18T00:56:39.318Z,77.40
2019-02-18T00:57:39.282Z,76.26
2019-02-18T00:58:39.275Z,76.37
2019-02-18T00:59:39.258Z,76.37
2019-02-18T01:00:39.249Z,76.26
2019-02-18T01:01:39.261Z,76.16
2019-02-18T01:02:39.229Z,76.16
2019-02-18T01:03:39.216Z,76.26
2019-02-18T01:04:39.212Z,75.64
2019-02-18T01:05:39.219Z,75.01
2019-02-18T01:06:39.206Z,76.47
2019-02-18T01:07:39.173Z,76.40
2019-02-18T01:08:39.161Z,75.67
2019-02-18T01:09:39.151Z,76.72
2019-02-18T01:10:39.138Z,76.72
2019-02-18T01:11:39.153Z,76.40
2019-02-18T01:12:39.121Z,76.09
2019-02-18T01:13:39.107Z,76.51
2019-02-18T01:14:39.096Z,76.51
2019-02-18T01:15:39.085Z,75.57
2019-02-18T01:16:39.323Z,75.67
2019-02-18T01:17:39.062Z,75.67
2019-02-18T01:18:39.065Z,75.46
2019-02-18T01:19:39.041Z,75.46
2019-02-18T01:20:39.031Z,76.61
2019-02-18T01:21:39.019Z,75.78
2019-02-18T01:22:39.032Z,76.82
2019-02-18T01:23:38.997Z,76.61
2019-02-18T01:24:38.985Z,76.51
2019-02-18T01:25:38.975Z,76.51
2019-02-18T01:26:38.965Z,75.67
2019-02-18T01:27:38.977Z,75.98
2019-02-18T01:28:38.944Z,76.09
2019-02-18T01:29:38.931Z,75.26
2019-02-18T01:30:38.924Z,76.40
2019-02-18T01:31:38.911Z,78.17
2019-02-18T01:32:38.933Z,78.38
2019-02-18T01:33:38.896Z,77.96
2019-02-18T01:34:38.882Z,77.75
2019-02-18T01:35:38.869Z,77.20
2019-02-18T01:36:38.863Z,76.26
2019-02-18T01:37:45.596Z,76.26
2019-02-18T01:38:38.836Z,76.47
2019-02-18T01:39:38.822Z,76.47
2019-02-18T01:40:38.811Z,76.47
2019-02-18T01:41:38.798Z,76.57
2019-02-18T01:42:38.813Z,76.51
2019-02-18T01:43:38.779Z,75.78
2019-02-18T01:44:38.769Z,76.82
2019-02-18T01:45:38.761Z,76.92
2019-02-18T01:46:38.746Z,76.29
2019-02-18T01:47:38.756Z,76.09
2019-02-18T01:48:38.724Z,76.51
2019-02-18T01:49:38.712Z,77.34
2019-02-18T01:50:38.700Z,76.92
2019-02-18T01:51:38.690Z,76.61
2019-02-18T01:52:38.714Z,76.75
2019-02-18T01:53:38.666Z,75.81
2019-02-18T01:54:38.656Z,76.54
2019-02-18T01:55:38.645Z,76.64
2019-02-18T01:56:38.633Z,75.92
2019-02-18T01:57:38.624Z,76.64
2019-02-18T01:58:38.637Z,76.75
2019-02-18T01:59:38.715Z,76.64
2019-02-18T02:00:38.593Z,76.95
2019-02-18T02:01:38.579Z,77.58
2019-02-18T02:02:38.576Z,78.62
2019-02-18T02:03:38.586Z,78.00
2019-02-18T02:04:38.547Z,77.27
2019-02-18T02:05:38.535Z,77.48
2019-02-18T02:06:38.524Z,77.37
2019-02-18T02:07:38.514Z,76.85
2019-02-18T02:08:38.528Z,77.27
2019-02-18T02:09:38.505Z,76.61
2019-02-18T02:10:38.483Z,76.75
2019-02-18T02:11:38.469Z,76.82
2019-02-18T02:12:38.459Z,77.16
2019-02-18T02:13:38.471Z,77.23
2019-02-18T02:14:38.439Z,76.72
2019-02-18T02:15:38.427Z,76.61
2019-02-18T02:16:38.417Z,77.23
2019-02-18T02:17:38.405Z,76.40
2019-02-18T02:18:38.424Z,76.51
2019-02-18T02:19:38.384Z,75.71
2019-02-18T02:20:38.373Z,76.54
2019-02-18T02:21:38.361Z,76.54
2019-02-18T02:22:38.368Z,76.75
2019-02-18T02:23:38.363Z,76.75
2019-02-18T02:24:38.329Z,76.85
2019-02-18T02:25:38.316Z,76.54
2019-02-18T02:26:38.311Z,77.27
2019-02-18T02:27:38.294Z,77.06
2019-02-18T02:28:38.319Z,76.54
2019-02-18T02:29:38.278Z,76.43
2019-02-18T02:30:38.262Z,76.95
2019-02-18T02:31:38.263Z,75.71
2019-02-18T02:32:38.240Z,76.64
2019-02-18T02:33:38.254Z,76.64
2019-02-18T02:34:38.218Z,76.64
2019-02-18T02:35:38.208Z,76.54
2019-02-18T02:36:38.204Z,76.54
2019-02-18T02:37:38.186Z,75.81
2019-02-18T02:38:38.200Z,75.74
2019-02-18T02:39:38.169Z,75.54
2019-02-18T02:40:38.165Z,76.47
2019-02-18T02:41:38.144Z,76.75
2019-02-18T02:42:38.131Z,76.68
2019-02-18T02:43:38.145Z,76.99
2019-02-18T02:44:38.108Z,76.16
2019-02-18T02:45:38.098Z,76.06
2019-02-18T02:46:38.087Z,75.54
2019-02-18T02:47:38.079Z,76.26
2019-02-18T02:48:38.087Z,76.78
2019-02-18T02:49:38.059Z,76.26
2019-02-18T02:50:38.047Z,76.51
2019-02-18T02:51:38.032Z,76.61
2019-02-18T02:52:38.024Z,76.61
2019-02-18T02:53:38.060Z,76.72
2019-02-18T02:54:38.003Z,77.23
2019-02-18T02:55:37.988Z,77.03
2019-02-18T02:56:37.979Z,76.82
2019-02-18T02:57:37.966Z,76.92
2019-02-18T02:58:37.955Z,76.61
2019-02-18T02:59:37.967Z,76.72
2019-02-18T03:00:37.933Z,76.82
2019-02-18T03:01:37.925Z,77.58
2019-02-18T03:02:37.914Z,77.37
2019-02-18T03:03:37.901Z,77.89
2019-02-18T03:04:37.911Z,78.28
2019-02-18T03:05:37.881Z,77.27
2019-02-18T03:06:37.884Z,77.89
2019-02-18T03:07:37.861Z,77.27
2019-02-18T03:08:37.903Z,76.65
2019-02-18T03:09:37.861Z,78.07
2019-02-18T03:10:37.825Z,77.48
2019-02-18T03:11:37.820Z,78.31
2019-02-18T03:12:37.802Z,78.28
2019-02-18T03:13:37.795Z,78.17
2019-02-18T03:14:37.804Z,77.96
2019-02-18T03:15:37.770Z,77.23
2019-02-18T03:16:37.757Z,76.92
2019-02-18T03:17:37.746Z,76.96
2019-02-18T03:18:37.738Z,76.92
2019-02-18T03:19:37.747Z,77.34
2019-02-18T03:20:37.721Z,77.44
2019-02-18T03:21:37.707Z,77.34
2019-02-18T03:22:37.745Z,77.75
2019-02-18T03:23:37.681Z,78.28
2019-02-18T03:24:37.697Z,77.34
2019-02-18T03:25:37.661Z,76.92
2019-02-18T03:26:37.657Z,77.03
2019-02-18T03:27:37.639Z,77.58
2019-02-18T03:28:37.625Z,76.96
2019-02-18T03:29:37.855Z,76.75
2019-02-18T03:30:37.613Z,76.54
2019-02-18T03:31:37.613Z,76.75
2019-02-18T03:32:37.585Z,76.43
2019-02-18T03:33:37.573Z,76.75
2019-02-18T03:34:37.567Z,76.43
2019-02-18T03:35:37.573Z,76.65
2019-02-18T03:36:37.541Z,77.37
2019-02-18T03:37:37.529Z,77.79
2019-02-18T03:38:37.519Z,76.86
2019-02-18T03:39:37.514Z,77.17
2019-02-18T03:40:37.520Z,77.69
2019-02-18T03:41:37.487Z,77.27
2019-02-18T03:42:37.477Z,76.86
2019-02-18T03:43:37.462Z,77.17
2019-02-18T03:44:37.454Z,77.37
2019-02-18T03:45:37.468Z,76.86
2019-02-18T03:46:37.431Z,78.20
2019-02-18T03:47:37.423Z,77.17
2019-02-18T03:48:37.420Z,77.17
2019-02-18T03:49:37.448Z,77.37
2019-02-18T03:50:37.420Z,76.89
2019-02-18T03:51:37.376Z,76.86
2019-02-18T03:52:37.366Z,76.54
2019-02-18T03:53:37.352Z,76.89
2019-02-18T03:54:37.345Z,76.78
2019-02-18T03:55:37.366Z,77.27
2019-02-18T03:56:37.323Z,78.14
2019-02-18T03:57:37.314Z,78.03
2019-02-18T03:58:37.302Z,78.87
2019-02-18T03:59:37.328Z,78.34
2019-02-18T04:00:37.300Z,78.20
2019-02-18T04:01:37.267Z,79.35
2019-02-18T04:02:37.256Z,78.83
2019-02-18T04:03:37.243Z,78.20
2019-02-18T04:04:37.290Z,78.24
2019-02-18T04:05:37.247Z,78.00
2019-02-18T04:06:37.216Z,77.79
2019-02-18T04:07:37.208Z,77.89
2019-02-18T04:08:42.969Z,78.63
2019-02-18T04:09:37.182Z,77.48
2019-02-18T04:10:37.206Z,76.75
2019-02-18T04:11:37.159Z,76.43
2019-02-18T04:12:37.147Z,76.75
2019-02-18T04:13:37.140Z,77.06
2019-02-18T04:14:37.123Z,76.54
2019-02-18T04:15:37.159Z,76.86
2019-02-18T04:16:37.102Z,76.23
2019-02-18T04:17:37.090Z,76.54
2019-02-18T04:18:37.079Z,76.78
2019-02-18T04:19:37.092Z,76.86
2019-02-18T04:20:37.058Z,77.41
2019-02-18T04:21:37.071Z,76.78
2019-02-18T04:22:37.035Z,76.99
2019-02-18T04:23:37.032Z,76.47
2019-02-18T04:24:37.012Z,76.89
2019-02-18T04:25:37.010Z,76.89
2019-02-18T04:26:37.041Z,76.89
2019-02-18T04:27:36.985Z,77.10
2019-02-18T04:28:36.971Z,77.41
2019-02-18T04:29:36.964Z,77.51
2019-02-18T04:30:36.952Z,77.41
2019-02-18T04:31:36.964Z,76.99
2019-02-18T04:32:36.925Z,77.10
2019-02-18T04:33:36.920Z,77.10
2019-02-18T04:34:36.915Z,76.78
2019-02-18T04:35:36.891Z,77.34
2019-02-18T04:36:36.907Z,77.10
2019-02-18T04:37:36.877Z,77.41
2019-02-18T04:38:36.863Z,77.62
2019-02-18T04:39:36.851Z,77.03
2019-02-18T04:40:36.837Z,76.89
2019-02-18T04:41:36.857Z,77.20
2019-02-18T04:42:36.829Z,77.23
2019-02-18T04:43:36.804Z,77.51
2019-02-18T04:44:36.808Z,77.41
2019-02-18T04:45:36.783Z,77.66
2019-02-18T04:46:36.805Z,76.92
2019-02-18T04:47:36.763Z,77.41
2019-02-18T04:48:36.749Z,77.97
2019-02-18T04:49:36.739Z,77.97
2019-02-18T04:50:36.729Z,77.86
2019-02-18T04:51:36.768Z,77.55
2019-02-18T04:52:36.717Z,77.45
2019-02-18T04:53:36.696Z,77.66
2019-02-18T04:54:36.686Z,77.55
2019-02-18T04:55:36.674Z,77.55
2019-02-18T04:56:36.662Z,77.66
2019-02-18T04:57:36.676Z,78.24
2019-02-18T04:58:36.638Z,77.72
2019-02-18T04:59:36.645Z,76.99
2019-02-18T05:00:36.619Z,77.41
2019-02-18T05:01:36.675Z,76.78
2019-02-18T05:02:36.620Z,77.10
2019-02-18T05:03:36.588Z,76.68
2019-02-18T05:04:36.575Z,77.23
2019-02-18T05:05:36.565Z,77.23
2019-02-18T05:06:36.557Z,77.03
2019-02-18T05:07:36.562Z,76.82
2019-02-18T05:08:36.545Z,77.34
2019-02-18T05:09:36.517Z,77.66
2019-02-18T05:10:36.508Z,77.66
2019-02-18T05:11:36.497Z,77.45
2019-02-18T05:12:36.508Z,77.10
2019-02-18T05:13:36.473Z,77.45
2019-02-18T05:14:36.463Z,77.55
2019-02-18T05:15:36.454Z,77.03
2019-02-18T05:16:36.441Z,77.45
2019-02-18T05:17:36.459Z,77.45
2019-02-18T05:18:36.422Z,76.92
2019-02-18T05:19:36.422Z,77.45
2019-02-18T05:20:36.396Z,76.92
2019-02-18T05:21:36.389Z,77.03
2019-02-18T05:22:36.406Z,78.38
2019-02-18T05:23:36.364Z,77.55
2019-02-18T05:24:36.354Z,77.45
2019-02-18T05:25:36.340Z,77.03
2019-02-18T05:26:36.331Z,77.03
2019-02-18T05:27:36.344Z,76.82
2019-02-18T05:28:36.313Z,76.92
2019-02-18T05:29:36.299Z,77.55
2019-02-18T05:30:36.290Z,77.76
2019-02-18T05:31:36.281Z,77.97
2019-02-18T05:32:36.289Z,78.83
2019-02-18T05:33:36.253Z,78.31
2019-02-18T05:34:36.244Z,77.06
2019-02-18T05:35:36.231Z,78.00
2019-02-18T05:36:36.289Z,78.07
2019-02-18T05:37:36.235Z,78.31
2019-02-18T05:38:36.206Z,77.66
2019-02-18T05:39:36.191Z,78.21
2019-02-18T05:40:36.177Z,78.52
2019-02-18T05:41:36.177Z,79.46
2019-02-18T05:42:36.205Z,78.73
2019-02-18T05:43:36.143Z,78.80
2019-02-18T05:44:36.138Z,77.97
2019-02-18T05:45:36.124Z,78.00
2019-02-18T05:46:36.110Z,78.21
2019-02-18T05:47:36.124Z,78.80
2019-02-18T05:48:36.090Z,77.66
2019-02-18T05:49:36.078Z,78.07
2019-02-18T05:50:36.069Z,78.07
2019-02-18T05:51:36.056Z,77.97
2019-02-18T05:52:36.071Z,77.45
2019-02-18T05:53:36.033Z,77.66
2019-02-18T05:54:36.088Z,77.86
2019-02-18T05:55:36.015Z,78.91
2019-02-18T05:56:36.008Z,78.80
2019-02-18T05:57:36.016Z,77.76
2019-02-18T05:58:35.981Z,77.45
2019-02-18T05:59:35.970Z,77.66
2019-02-18T06:00:35.959Z,77.23
2019-02-18T06:01:35.947Z,77.48
2019-02-18T06:02:35.962Z,77.69
2019-02-18T06:03:35.925Z,77.17
2019-02-18T06:04:35.914Z,77.06
2019-02-18T06:05:35.904Z,77.58
2019-02-18T06:06:35.962Z,77.48
2019-02-18T06:07:35.904Z,77.27
2019-02-18T06:08:35.871Z,77.27
2019-02-18T06:09:35.862Z,77.17
2019-02-18T06:10:35.848Z,77.48
2019-02-18T06:11:35.836Z,76.86
2019-02-18T06:12:35.863Z,77.27
2019-02-18T06:13:35.815Z,77.58
2019-02-18T06:14:35.804Z,77.37
2019-02-18T06:15:35.794Z,77.00
2019-02-18T06:16:35.782Z,77.48
2019-02-18T06:17:35.777Z,77.62
2019-02-18T06:18:35.791Z,77.37
2019-02-18T06:19:35.752Z,76.79
2019-02-18T06:20:35.737Z,77.06
2019-02-18T06:21:35.729Z,77.51
2019-02-18T06:22:38.377Z,77.31
2019-02-18T06:23:35.728Z,76.89
2019-02-18T06:24:35.693Z,76.79
2019-02-18T06:25:35.683Z,76.79
2019-02-18T06:26:35.677Z,77.51
2019-02-18T06:27:35.661Z,77.41
2019-02-18T06:28:35.677Z,77.83
2019-02-18T06:29:35.647Z,77.94
2019-02-18T06:30:35.633Z,77.51
2019-02-18T06:31:35.620Z,78.25
2019-02-18T06:32:35.606Z,78.14
2019-02-18T06:33:35.619Z,77.31
2019-02-18T06:34:35.586Z,77.72
2019-02-18T06:35:35.571Z,78.66
2019-02-18T06:36:35.563Z,78.87
2019-02-18T06:37:35.552Z,78.14
2019-02-18T06:38:35.568Z,78.25
2019-02-18T06:39:41.324Z,78.77
2019-02-18T06:40:35.521Z,79.91
2019-02-18T06:41:35.511Z,78.97
2019-02-18T06:42:35.501Z,78.66
2019-02-18T06:43:35.509Z,78.42
2019-02-18T06:44:35.473Z,78.31
2019-02-18T06:45:35.462Z,78.11
2019-02-18T06:46:35.450Z,78.04
2019-02-18T06:47:35.461Z,77.62
2019-02-18T06:48:35.456Z,79.15
2019-02-18T06:49:35.423Z,78.25
2019-02-18T06:50:35.408Z,78.25
2019-02-18T06:51:35.401Z,78.83
2019-02-18T06:52:35.390Z,78.00
2019-02-18T06:53:35.402Z,77.48
2019-02-18T06:54:35.365Z,78.11
2019-02-18T06:55:35.359Z,77.48
2019-02-18T06:56:35.342Z,77.51
2019-02-18T06:57:35.435Z,77.48
2019-02-18T06:58:35.359Z,77.90
2019-02-18T06:59:35.314Z,78.21
2019-02-18T07:00:35.304Z,77.90
2019-02-18T07:01:35.286Z,78.21
2019-02-18T07:02:35.276Z,77.69
2019-02-18T07:03:35.266Z,77.69
2019-02-18T07:04:35.276Z,76.96
2019-02-18T07:05:35.275Z,76.96
2019-02-18T07:06:35.230Z,78.21
2019-02-18T07:07:35.223Z,77.90
2019-02-18T07:08:35.212Z,78.00
2019-02-18T07:09:35.221Z,77.90
2019-02-18T07:10:35.187Z,77.90
2019-02-18T07:11:35.188Z,77.37
2019-02-18T07:12:35.166Z,78.42
2019-02-18T07:13:35.154Z,77.90
2019-02-18T07:14:35.322Z,77.58
2019-02-18T07:15:35.142Z,78.11
2019-02-18T07:16:35.127Z,78.11
2019-02-18T07:17:35.133Z,77.90
2019-02-18T07:18:35.101Z,78.31
2019-02-18T07:19:35.130Z,78.73
2019-02-18T07:20:35.082Z,77.86
2019-02-18T07:21:35.075Z,77.90
2019-02-18T07:22:35.056Z,78.11
2019-02-18T07:23:35.044Z,76.96
2019-02-18T07:24:35.057Z,77.58
2019-02-18T07:25:35.023Z,78.00
2019-02-18T07:26:35.014Z,78.31
2019-02-18T07:27:35.003Z,78.31
2019-02-18T07:28:34.992Z,78.28
2019-02-18T07:29:35.005Z,79.43
2019-02-18T07:30:34.986Z,78.91
2019-02-18T07:31:34.957Z,78.28
2019-02-18T07:32:34.949Z,79.74
2019-02-18T07:33:34.937Z,79.74
2019-02-18T07:34:34.965Z,79.22
2019-02-18T07:35:34.911Z,78.87
2019-02-18T07:36:35.185Z,78.34
2019-02-18T07:37:34.892Z,78.66
2019-02-18T07:38:34.881Z,78.45
2019-02-18T07:39:34.872Z,78.34
2019-02-18T07:40:34.882Z,77.93
2019-02-18T07:41:34.849Z,78.03
2019-02-18T07:42:34.836Z,77.72
2019-02-18T07:43:34.852Z,77.93
2019-02-18T07:44:34.813Z,78.10
2019-02-18T07:45:34.825Z,78.03
2019-02-18T07:46:34.910Z,78.03
2019-02-18T07:47:34.787Z,78.10
2019-02-18T07:48:36.727Z,78.00
2019-02-18T07:49:34.757Z,78.69
2019-02-18T07:50:34.773Z,78.73
2019-02-18T07:51:34.740Z,78.69
2019-02-18T07:52:34.726Z,79.73
2019-02-18T07:53:34.718Z,78.49
2019-02-18T07:54:34.705Z,78.34
2019-02-18T07:55:34.825Z,78.49
2019-02-18T07:56:34.685Z,78.66
2019-02-18T07:57:34.670Z,78.76
2019-02-18T07:58:34.661Z,78.62
2019-02-18T07:59:34.653Z,78.20
2019-02-18T08:00:34.719Z,77.58
2019-02-18T08:01:34.628Z,77.48
2019-02-18T08:02:34.616Z,77.79
2019-02-18T08:03:34.605Z,76.64
2019-02-18T08:04:34.597Z,77.75
2019-02-18T08:05:34.605Z,77.34
2019-02-18T08:06:34.575Z,77.65
2019-02-18T08:07:34.569Z,77.61
2019-02-18T08:08:34.550Z,77.86
2019-02-18T08:09:34.542Z,77.44
2019-02-18T08:10:34.552Z,77.40
2019-02-18T08:11:34.518Z,77.61
2019-02-18T08:12:34.507Z,77.82
2019-02-18T08:13:34.500Z,77.20
2019-02-18T08:14:34.486Z,77.92
2019-02-18T08:15:34.498Z,77.30
2019-02-18T08:16:34.463Z,76.54
2019-02-18T08:17:34.487Z,77.16
2019-02-18T08:18:34.444Z,76.85
2019-02-18T08:19:34.430Z,76.29
2019-02-18T08:20:34.456Z,76.64
2019-02-18T08:21:34.408Z,76.40
2019-02-18T08:22:34.404Z,76.40
2019-02-18T08:23:34.385Z,76.19
2019-02-18T08:24:34.375Z,76.19
2019-02-18T08:25:34.415Z,75.36
2019-02-18T08:26:34.381Z,75.95
2019-02-18T08:27:34.342Z,75.85
2019-02-18T08:28:34.333Z,76.26
2019-02-18T08:29:34.320Z,76.37
2019-02-18T08:30:34.312Z,76.23
2019-02-18T08:31:34.321Z,76.33
2019-02-18T08:32:34.290Z,76.02
2019-02-18T08:33:34.276Z,76.54
2019-02-18T08:34:34.269Z,76.92
2019-02-18T08:35:34.258Z,76.29
2019-02-18T08:36:34.279Z,76.40
2019-02-18T08:37:34.234Z,75.46
2019-02-18T08:38:34.257Z,75.53
2019-02-18T08:39:34.209Z,75.29
2019-02-18T08:40:34.198Z,75.50
2019-02-18T08:41:34.293Z,75.09
2019-02-18T08:42:34.347Z,74.98
2019-02-18T08:43:34.167Z,73.84
2019-02-18T08:44:34.179Z,74.43
2019-02-18T08:45:34.144Z,74.22
2019-02-18T08:46:34.158Z,74.43
2019-02-18T08:47:34.125Z,74.40
2019-02-18T08:48:34.115Z,74.19
2019-02-18T08:49:34.106Z,74.40
2019-02-18T08:50:34.091Z,73.67
2019-02-18T08:51:34.100Z,73.88
2019-02-18T08:52:34.067Z,73.33
2019-02-18T08:53:34.053Z,72.29
2019-02-18T08:54:34.047Z,72.47
2019-02-18T08:55:34.032Z,72.36
2019-02-18T08:56:34.046Z,72.22
2019-02-18T08:57:34.009Z,72.22
2019-02-18T08:58:33.999Z,72.02
2019-02-18T08:59:33.986Z,70.67
2019-02-18T09:00:33.974Z,70.85
2019-02-18T09:01:33.986Z,70.95
2019-02-18T09:02:33.962Z,70.40
2019-02-18T09:03:33.945Z,70.47
2019-02-18T09:04:33.938Z,70.37
2019-02-18T09:05:33.954Z,70.47
2019-02-18T09:06:33.935Z,70.06
2019-02-18T09:07:33.902Z,70.23
2019-02-18T09:08:33.889Z,71.68
2019-02-18T09:09:33.878Z,70.13
2019-02-18T09:10:34.223Z,69.27
2019-02-18T09:11:33.887Z,69.17
2019-02-18T09:12:33.844Z,68.73
2019-02-18T09:13:33.844Z,68.11
2019-02-18T09:14:33.823Z,67.77
2019-02-18T09:15:33.817Z,67.36
2019-02-18T09:16:33.835Z,67.43
2019-02-18T09:17:33.788Z,66.40
2019-02-18T09:18:33.779Z,65.65
2019-02-18T09:19:33.765Z,65.44
2019-02-18T09:20:33.751Z,64.90
2019-02-18T09:21:33.744Z,64.97
2019-02-18T09:22:33.761Z,64.76
2019-02-18T09:23:33.717Z,64.53
2019-02-18T09:24:33.708Z,64.91
2019-02-18T09:25:33.700Z,62.75
2019-02-18T09:26:33.689Z,62.55
2019-02-18T09:27:33.700Z,62.11
2019-02-18T09:28:33.665Z,62.31
2019-02-18T09:29:33.679Z,61.98
2019-02-18T09:30:33.641Z,60.61
2019-02-18T09:31:33.629Z,60.92
2019-02-18T09:32:33.642Z,60.38
2019-02-18T09:33:33.607Z,59.74
2019-02-18T09:34:33.596Z,58.72
2019-02-18T09:35:33.587Z,58.17
2019-02-18T09:36:33.574Z,57.87
2019-02-18T09:37:33.586Z,58.76
2019-02-18T09:38:33.550Z,58.15
2019-02-18T09:39:33.540Z,58.02
2019-02-18T09:40:43.935Z,57.30
2019-02-18T09:41:34.522Z,56.76
2019-02-18T09:42:33.536Z,56.76
2019-02-18T09:43:33.514Z,56.76
2019-02-18T09:44:33.495Z,56.46
2019-02-18T09:45:33.481Z,56.02
2019-02-18T09:46:33.463Z,56.84
2019-02-18T09:47:33.490Z,56.71
2019-02-18T09:48:33.447Z,56.10
2019-02-18T09:49:33.456Z,56.38
2019-02-18T09:50:33.425Z,56.38
2019-02-18T09:51:33.424Z,54.51
2019-02-18T09:52:33.396Z,55.63
2019-02-18T09:53:33.478Z,53.29
2019-02-18T09:54:33.372Z,52.96
2019-02-18T09:55:33.362Z,53.47
2019-02-18T09:56:33.350Z,52.73
2019-02-18T09:57:33.341Z,52.73
2019-02-18T09:58:33.352Z,52.42
2019-02-18T09:59:33.323Z,53.14
2019-02-18T10:00:33.426Z,52.60
2019-02-18T10:01:33.299Z,52.20
2019-02-18T10:02:33.282Z,51.86
2019-02-18T10:03:33.297Z,51.56
2019-02-18T10:04:33.263Z,52.45
2019-02-18T10:05:33.249Z,51.03
2019-02-18T10:06:33.239Z,51.46
2019-02-18T10:07:33.227Z,50.44
2019-02-18T10:08:33.240Z,51.53
2019-02-18T10:09:33.206Z,51.43
2019-02-18T10:10:33.233Z,51.64
2019-02-18T10:11:33.190Z,51.41
2019-02-18T10:12:33.180Z,49.68
2019-02-18T10:13:33.184Z,50.29
2019-02-18T10:14:33.155Z,50.67
2019-02-18T10:15:33.139Z,50.37
2019-02-18T10:16:33.129Z,50.98
2019-02-18T10:17:33.121Z,49.63
2019-02-18T10:18:33.130Z,50.85
2019-02-18T10:19:33.100Z,49.40
2019-02-18T10:20:33.088Z,48.28
2019-02-18T10:21:33.074Z,49.30
2019-02-18T10:22:33.085Z,48.27
2019-02-18T10:23:33.078Z,48.06
2019-02-18T10:24:33.048Z,47.74
2019-02-18T10:25:33.038Z,47.94
2019-02-18T10:26:33.021Z,48.32
2019-02-18T10:27:33.087Z,47.41
2019-02-18T10:28:33.023Z,47.00
2019-02-18T10:29:32.995Z,46.78
2019-02-18T10:30:32.979Z,47.69
2019-02-18T10:31:32.970Z,46.47
2019-02-18T10:32:32.957Z,47.28
2019-02-18T10:33:32.976Z,47.06
2019-02-18T10:34:32.941Z,45.84
2019-02-18T10:35:32.930Z,45.94
2019-02-18T10:36:32.911Z,46.45
2019-02-18T10:37:32.899Z,46.22
2019-02-18T10:38:32.928Z,45.50
2019-02-18T10:39:32.875Z,46.20
2019-02-18T10:40:32.864Z,46.22
2019-02-18T10:41:32.856Z,46.00
2019-02-18T10:42:32.842Z,44.76
2019-02-18T10:43:32.938Z,46.28
2019-02-18T10:44:32.842Z,45.96
2019-02-18T10:45:32.809Z,45.45
2019-02-18T10:46:32.799Z,44.95
2019-02-18T10:47:32.786Z,43.20
2019-02-18T10:48:32.774Z,43.89
2019-02-18T10:49:32.787Z,42.88
2019-02-18T10:50:32.753Z,42.96
2019-02-18T10:51:32.744Z,43.14
2019-02-18T10:52:32.729Z,43.14
2019-02-18T10:53:32.720Z,41.52
2019-02-18T10:54:32.730Z,42.11
2019-02-18T10:55:32.697Z,41.81
2019-02-18T10:56:32.695Z,41.71
2019-02-18T10:57:32.673Z,40.48
2019-02-18T10:58:32.662Z,40.37
2019-02-18T10:59:32.675Z,40.46
2019-02-18T11:00:32.641Z,39.94
2019-02-18T11:01:32.631Z,39.23
2019-02-18T11:02:32.618Z,39.72
2019-02-18T11:03:32.611Z,38.99
2019-02-18T11:04:32.627Z,39.90
2019-02-18T11:05:32.588Z,37.96
2019-02-18T11:06:32.574Z,37.87
2019-02-18T11:07:32.563Z,38.35
2019-02-18T11:08:32.552Z,38.23
2019-02-18T11:09:32.590Z,38.65
2019-02-18T11:10:32.534Z,38.83
2019-02-18T11:11:32.519Z,38.51
2019-02-18T11:12:32.511Z,38.49
2019-02-18T11:13:32.496Z,37.29
2019-02-18T11:14:32.493Z,36.79
2019-02-18T11:15:32.496Z,36.77
2019-02-18T11:16:32.466Z,36.25
2019-02-18T11:17:38.961Z,35.25
2019-02-18T11:18:32.445Z,35.64
2019-02-18T11:19:32.431Z,35.13
2019-02-18T11:20:32.443Z,36.03
2019-02-18T11:21:32.407Z,35.53
2019-02-18T11:22:32.394Z,34.84
2019-02-18T11:23:32.384Z,35.64
2019-02-18T11:24:32.430Z,35.64
2019-02-18T11:25:32.387Z,36.75
2019-02-18T11:26:32.352Z,35.35
2019-02-18T11:27:32.341Z,36.18
2019-02-18T11:28:32.333Z,38.21
2019-02-18T11:29:32.320Z,37.93
2019-02-18T11:30:32.331Z,37.96
2019-02-18T11:31:32.294Z,38.08
2019-02-18T11:32:32.291Z,38.50
2019-02-18T11:33:32.271Z,38.73
2019-02-18T11:34:32.260Z,39.03
2019-02-18T11:35:32.274Z,38.82
2019-02-18T11:36:32.238Z,39.85
2019-02-18T11:37:32.229Z,40.25
2019-02-18T11:38:32.215Z,40.58
2019-02-18T11:39:32.202Z,40.46
2019-02-18T11:40:32.350Z,39.13
2019-02-18T11:41:32.182Z,38.60
2019-02-18T11:42:32.171Z,38.87
2019-02-18T11:43:32.158Z,37.54
2019-02-18T11:44:32.149Z,38.73
2019-02-18T11:45:34.674Z,36.70
2019-02-18T11:46:32.128Z,37.10
2019-02-18T11:47:32.114Z,37.29
2019-02-18T11:48:32.103Z,36.89
2019-02-18T11:49:32.091Z,37.07
2019-02-18T11:50:32.107Z,35.64
2019-02-18T11:51:32.068Z,35.33
2019-02-18T11:52:32.058Z,36.43
2019-02-18T11:53:32.048Z,35.51
2019-02-18T11:54:32.037Z,34.81
2019-02-18T11:55:32.060Z,35.51
2019-02-18T11:56:32.016Z,35.51
2019-02-18T11:57:32.001Z,36.83
2019-02-18T11:58:31.989Z,35.43
2019-02-18T11:59:31.981Z,35.33
2019-02-18T12:00:32.010Z,36.52
2019-02-18T12:01:31.999Z,35.21
2019-02-18T12:02:31.950Z,33.49
2019-02-18T12:03:31.934Z,34.29
2019-02-18T12:04:31.924Z,34.98
2019-02-18T12:05:31.911Z,34.48
2019-02-18T12:06:31.923Z,34.56
2019-02-18T12:07:31.891Z,35.06
2019-02-18T12:08:31.884Z,34.44
2019-02-18T12:09:31.871Z,33.34
2019-02-18T12:10:31.859Z,33.53
2019-02-18T12:11:38.019Z,33.91
2019-02-18T12:12:31.835Z,34.59
2019-02-18T12:13:31.824Z,34.39
2019-02-18T12:14:31.814Z,34.69
2019-02-18T12:15:31.813Z,33.70
2019-02-18T12:16:31.819Z,34.19
2019-02-18T12:17:31.779Z,32.88
2019-02-18T12:18:31.769Z,32.58
2019-02-18T12:19:31.759Z,32.89
2019-02-18T12:20:31.757Z,32.59
2019-02-18T12:21:31.759Z,31.90
2019-02-18T12:22:31.726Z,33.41
2019-02-18T12:23:31.719Z,32.81
2019-02-18T12:24:31.706Z,33.93
2019-02-18T12:25:31.692Z,34.61
2019-02-18T12:26:31.706Z,33.41
2019-02-18T12:27:32.255Z,33.11
2019-02-18T12:28:31.663Z,34.01
2019-02-18T12:29:31.651Z,34.73
2019-02-18T12:30:32.521Z,34.31
2019-02-18T12:31:31.671Z,34.73
2019-02-18T12:32:31.619Z,33.12
2019-02-18T12:33:31.608Z,33.23
2019-02-18T12:34:31.596Z,33.33
2019-02-18T12:35:32.361Z,33.14
2019-02-18T12:36:31.596Z,33.24
2019-02-18T12:37:31.564Z,35.44
2019-02-18T12:38:31.558Z,33.74
2019-02-18T12:39:31.543Z,33.93
2019-02-18T12:40:31.531Z,33.64
2019-02-18T12:41:31.557Z,32.64
2019-02-18T12:42:31.543Z,32.84
2019-02-18T12:43:31.502Z,32.84
2019-02-18T12:44:31.489Z,33.73
2019-02-18T12:45:31.477Z,33.23
2019-02-18T12:46:31.469Z,33.53
2019-02-18T12:47:31.479Z,33.53
2019-02-18T12:48:31.449Z,33.23
2019-02-18T12:49:31.437Z,33.62
2019-02-18T12:50:31.425Z,36.75
2019-02-18T12:51:31.414Z,33.54
2019-02-18T12:52:31.429Z,33.24